VIAG/AGR METAR and TAF weather

Enter ICAO airport designator
Station Type Date Time Source
VIAG METAR 2019/10/14 09:30 UTC NOAA

VIAG 140930Z 30004KT 6000 FEW030 33/14 Q1011 NOSIG


Station Type Date Time Source
VIAG Decoded METAR 2019/10/14 09:30 UTC NOAA

Agra, India (VIAG) 27-09N 077-58E 169M
Oct 14, 2019 - 05:30 AM EDT / 2019.10.14 0930 UTC
Wind: from the WNW (300 degrees) at 5 MPH (4 KT):0
Visibility: 3 mile(s):0
Sky conditions: mostly clear
Temperature: 91 F (33 C)
Dew Point: 57 F (14 C)
Relative Humidity: 31%
Pressure (altimeter): 29.85 in. Hg (1011 hPa)
ob: VIAG 140930Z 30004KT 6000 FEW030 33/14 Q1011 NOSIG
cycle: 9

Station Type Date Time Source
VIAG TAF 2019/10/15 12:30 UTC NOAA

TAF VIAG 150930Z 1512/1524 27005KT 6000 NSC
BECMG 1522/1523 VRB02KT 3000 BR

Example: see airport list